Etusivu
METAR-TAF:

METAR-TAF

Lentoasemat :

Benson, Minnesota, Yhdysvallat

Leveyspiiri: 45-19N, Pituuspiiri: 095-39W, korkeus merenpinnasta: 317 m

Tämänhetkinen sää

Tämä raportti tehtiin 11 minuuttia sitten, kello 20.31 UTC
Tuuli 6 kn luoteesta
Lämpötila -7°C
Kosteus 79%
Ilmanpaine 1026 hPa
Näkyvyys: 11.3 km
Hajanaisia pilviä 1600 ft:n korkeudessa
Pilvistä 3500 ft:n korkeudessa
heikkoa lumisadetta

METAR: KBBB 262031Z AUTO 31006KT 7SM -SN SCT016 OVC035 M07/M10 A3029 RMK AO2

Aika: 14:42 (20:42 UTC)


TAF: puuttuu

Säähavainnot ja -ennusteet yli 4000 lentoasemalta (METAR- ja TAF-raportit).

Käytössä olevat sääasemat on merkitty karttaan keltaisilla ja punaisilla pisteillä.

Aseta hiiri pisteen päälle nähdäksesi sääaseman nimen.

Klikkaa sitten nähdäksesi säähavainnot ja -ennusteet.

Kartan vaihtaminen: klikkaa mustalla rastilla varustettuja vihreitä pisteitä, niin voit zoomata sisään; viivalla varustettua vihreää pistettä, niin voit zoomata ulos tai vihreitä nuolia, niin pääset viereisille kartoille.


METAR-TAF: